sensor_id;sensor_type;location;lat;lon;timestamp;temperature;humidity
17571;DHT22;8903;52.220;20.978;2022-12-05T00:00:37;1.30;99.90
17571;DHT22;8903;52.220;20.978;2022-12-05T00:03:04;1.30;99.90
17571;DHT22;8903;52.220;20.978;2022-12-05T00:05:33;1.30;99.90
17571;DHT22;8903;52.220;20.978;2022-12-05T00:07:59;1.30;99.90
17571;DHT22;8903;52.220;20.978;2022-12-05T00:10:26;1.30;99.90
17571;DHT22;8903;52.220;20.978;2022-12-05T00:12:53;1.30;99.90
17571;DHT22;8903;52.220;20.978;2022-12-05T00:15:20;1.30;99.90
17571;DHT22;8903;52.220;20.978;2022-12-05T00:17:47;1.40;99.90
17571;DHT22;8903;52.220;20.978;2022-12-05T00:20:14;1.40;99.90
17571;DHT22;8903;52.220;20.978;2022-12-05T00:22:42;1.40;99.90
17571;DHT22;8903;52.220;20.978;2022-12-05T00:25:09;1.40;99.90
17571;DHT22;8903;52.220;20.978;2022-12-05T00:27:36;1.40;99.90
17571;DHT22;8903;52.220;20.978;2022-12-05T00:30:03;1.30;99.90
17571;DHT22;8903;52.220;20.978;2022-12-05T00:32:31;1.30;99.90
17571;DHT22;8903;52.220;20.978;2022-12-05T00:35:13;1.30;99.90
17571;DHT22;8903;52.220;20.978;2022-12-05T00:37:41;1.30;99.90
17571;DHT22;8903;52.220;20.978;2022-12-05T00:40:09;1.30;99.90
17571;DHT22;8903;52.220;20.978;2022-12-05T00:42:36;1.30;99.90
17571;DHT22;8903;52.220;20.978;2022-12-05T00:45:03;1.30;99.90
17571;DHT22;8903;52.220;20.978;2022-12-05T00:47:31;1.30;99.90
17571;DHT22;8903;52.220;20.978;2022-12-05T00:50:33;1.30;99.90
17571;DHT22;8903;52.220;20.978;2022-12-05T00:53:04;1.30;99.90
17571;DHT22;8903;52.220;20.978;2022-12-05T00:55:31;1.30;99.90
17571;DHT22;8903;52.220;20.978;2022-12-05T00:58:01;1.30;99.90
17571;DHT22;8903;52.220;20.978;2022-12-05T01:00:28;1.30;99.90
17571;DHT22;8903;52.220;20.978;2022-12-05T01:02:55;1.20;99.90
17571;DHT22;8903;52.220;20.978;2022-12-05T01:05:22;1.20;99.90
17571;DHT22;8903;52.220;20.978;2022-12-05T01:07:49;1.20;99.90
17571;DHT22;8903;52.220;20.978;2022-12-05T01:10:17;1.20;99.90
17571;DHT22;8903;52.220;20.978;2022-12-05T01:12:44;1.20;99.90
17571;DHT22;8903;52.220;20.978;2022-12-05T01:15:11;1.20;99.90
17571;DHT22;8903;52.220;20.978;2022-12-05T01:17:38;1.10;99.90
17571;DHT22;8903;52.220;20.978;2022-12-05T01:20:06;1.10;99.90
17571;DHT22;8903;52.220;20.978;2022-12-05T01:22:33;1.10;99.90
17571;DHT22;8903;52.220;20.978;2022-12-05T01:25:00;1.20;99.90
17571;DHT22;8903;52.220;20.978;2022-12-05T01:27:28;1.20;99.90
17571;DHT22;8903;52.220;20.978;2022-12-05T01:29:56;1.20;99.90
17571;DHT22;8903;52.220;20.978;2022-12-05T01:32:23;1.10;99.90
17571;DHT22;8903;52.220;20.978;2022-12-05T01:34:50;1.10;99.90
17571;DHT22;8903;52.220;20.978;2022-12-05T01:37:17;1.10;99.90
17571;DHT22;8903;52.220;20.978;2022-12-05T01:39:44;1.20;99.90
17571;DHT22;8903;52.220;20.978;2022-12-05T01:42:11;1.10;99.90
17571;DHT22;8903;52.220;20.978;2022-12-05T01:45:03;1.10;99.90
17571;DHT22;8903;52.220;20.978;2022-12-05T01:47:32;1.10;99.90
17571;DHT22;8903;52.220;20.978;2022-12-05T01:50:00;1.10;99.90
17571;DHT22;8903;52.220;20.978;2022-12-05T01:52:29;1.10;99.90
17571;DHT22;8903;52.220;20.978;2022-12-05T01:55:02;1.10;99.90
17571;DHT22;8903;52.220;20.978;2022-12-05T01:57:30;1.10;99.90
17571;DHT22;8903;52.220;20.978;2022-12-05T02:00:00;1.10;99.90
17571;DHT22;8903;52.220;20.978;2022-12-05T02:02:41;1.10;99.90
17571;DHT22;8903;52.220;20.978;2022-12-05T02:05:12;1.10;99.90
17571;DHT22;8903;52.220;20.978;2022-12-05T02:07:41;1.10;99.90
17571;DHT22;8903;52.220;20.978;2022-12-05T02:10:09;1.10;99.90
17571;DHT22;8903;52.220;20.978;2022-12-05T02:12:37;1.10;99.90
17571;DHT22;8903;52.220;20.978;2022-12-05T02:15:26;1.10;99.90
17571;DHT22;8903;52.220;20.978;2022-12-05T02:18:05;1.10;99.90
17571;DHT22;8903;52.220;20.978;2022-12-05T02:20:47;1.10;99.90
17571;DHT22;8903;52.220;20.978;2022-12-05T02:23:32;1.10;99.90
17571;DHT22;8903;52.220;20.978;2022-12-05T02:26:30;1.10;99.90
17571;DHT22;8903;52.220;20.978;2022-12-05T02:29:20;1.10;99.90
17571;DHT22;8903;52.220;20.978;2022-12-05T02:31:58;1.10;99.90
17571;DHT22;8903;52.220;20.978;2022-12-05T02:34:34;1.10;99.90
17571;DHT22;8903;52.220;20.978;2022-12-05T02:37:11;1.10;99.90
17571;DHT22;8903;52.220;20.978;2022-12-05T02:39:44;1.10;99.90
17571;DHT22;8903;52.220;20.978;2022-12-05T02:42:17;1.00;99.90
17571;DHT22;8903;52.220;20.978;2022-12-05T02:44:51;1.00;99.90
17571;DHT22;8903;52.220;20.978;2022-12-05T02:47:23;0.90;99.90
17571;DHT22;8903;52.220;20.978;2022-12-05T02:49:52;1.00;99.90
17571;DHT22;8903;52.220;20.978;2022-12-05T02:52:21;1.00;99.90
17571;DHT22;8903;52.220;20.978;2022-12-05T02:54:50;1.00;99.90
17571;DHT22;8903;52.220;20.978;2022-12-05T02:57:18;1.00;99.90
17571;DHT22;8903;52.220;20.978;2022-12-05T02:59:46;1.00;99.90
17571;DHT22;8903;52.220;20.978;2022-12-05T03:02:24;1.00;99.90
17571;DHT22;8903;52.220;20.978;2022-12-05T03:04:52;1.00;99.90
17571;DHT22;8903;52.220;20.978;2022-12-05T03:07:20;1.10;99.90
17571;DHT22;8903;52.220;20.978;2022-12-05T03:09:51;1.00;99.90
17571;DHT22;8903;52.220;20.978;2022-12-05T03:12:23;1.00;99.90
17571;DHT22;8903;52.220;20.978;2022-12-05T03:14:54;1.00;99.90
17571;DHT22;8903;52.220;20.978;2022-12-05T03:17:27;1.00;99.90
17571;DHT22;8903;52.220;20.978;2022-12-05T03:19:58;1.00;99.90
17571;DHT22;8903;52.220;20.978;2022-12-05T03:22:31;1.00;99.90
17571;DHT22;8903;52.220;20.978;2022-12-05T03:25:01;1.00;99.90
17571;DHT22;8903;52.220;20.978;2022-12-05T03:27:32;1.00;99.90
17571;DHT22;8903;52.220;20.978;2022-12-05T03:30:05;1.00;99.90
17571;DHT22;8903;52.220;20.978;2022-12-05T03:32:38;1.00;99.90
17571;DHT22;8903;52.220;20.978;2022-12-05T03:35:11;1.00;99.90
17571;DHT22;8903;52.220;20.978;2022-12-05T03:37:44;1.00;99.90
17571;DHT22;8903;52.220;20.978;2022-12-05T03:40:21;1.00;99.90
17571;DHT22;8903;52.220;20.978;2022-12-05T03:42:53;0.90;99.90
17571;DHT22;8903;52.220;20.978;2022-12-05T03:45:26;0.90;99.90
17571;DHT22;8903;52.220;20.978;2022-12-05T03:48:03;1.00;99.90
17571;DHT22;8903;52.220;20.978;2022-12-05T03:50:34;1.00;99.90
17571;DHT22;8903;52.220;20.978;2022-12-05T03:53:04;0.90;99.90
17571;DHT22;8903;52.220;20.978;2022-12-05T03:55:35;0.90;99.90
17571;DHT22;8903;52.220;20.978;2022-12-05T03:58:07;0.90;99.90
17571;DHT22;8903;52.220;20.978;2022-12-05T04:00:39;0.90;99.90
17571;DHT22;8903;52.220;20.978;2022-12-05T04:03:10;0.90;99.90
17571;DHT22;8903;52.220;20.978;2022-12-05T04:05:43;0.90;99.90
17571;DHT22;8903;52.220;20.978;2022-12-05T04:08:16;0.90;99.90
17571;DHT22;8903;52.220;20.978;2022-12-05T04:10:46;0.90;99.90
17571;DHT22;8903;52.220;20.978;2022-12-05T04:13:17;0.90;99.90
17571;DHT22;8903;52.220;20.978;2022-12-05T04:15:49;0.90;99.90
17571;DHT22;8903;52.220;20.978;2022-12-05T04:18:41;0.90;99.90
17571;DHT22;8903;52.220;20.978;2022-12-05T04:21:10;0.90;99.90
17571;DHT22;8903;52.220;20.978;2022-12-05T04:23:55;0.80;99.90
17571;DHT22;8903;52.220;20.978;2022-12-05T04:26:45;0.90;99.90
17571;DHT22;8903;52.220;20.978;2022-12-05T04:29:18;0.90;99.90
17571;DHT22;8903;52.220;20.978;2022-12-05T04:31:52;0.90;99.90
17571;DHT22;8903;52.220;20.978;2022-12-05T04:34:23;0.90;99.90
17571;DHT22;8903;52.220;20.978;2022-12-05T04:36:55;1.00;99.90
17571;DHT22;8903;52.220;20.978;2022-12-05T04:39:26;0.90;99.90
17571;DHT22;8903;52.220;20.978;2022-12-05T04:41:57;0.90;99.90
17571;DHT22;8903;52.220;20.978;2022-12-05T04:44:29;0.90;99.90
17571;DHT22;8903;52.220;20.978;2022-12-05T04:47:00;0.80;99.90
17571;DHT22;8903;52.220;20.978;2022-12-05T04:49:31;0.80;99.90
17571;DHT22;8903;52.220;20.978;2022-12-05T04:52:03;0.90;99.90
17571;DHT22;8903;52.220;20.978;2022-12-05T04:54:36;0.90;99.90
17571;DHT22;8903;52.220;20.978;2022-12-05T04:57:08;0.90;99.90
17571;DHT22;8903;52.220;20.978;2022-12-05T04:59:35;0.90;99.90
17571;DHT22;8903;52.220;20.978;2022-12-05T05:02:06;0.90;99.90
17571;DHT22;8903;52.220;20.978;2022-12-05T05:04:37;0.80;99.90
17571;DHT22;8903;52.220;20.978;2022-12-05T05:07:06;0.80;99.90
17571;DHT22;8903;52.220;20.978;2022-12-05T05:09:34;0.80;99.90
17571;DHT22;8903;52.220;20.978;2022-12-05T05:12:01;0.80;99.90
17571;DHT22;8903;52.220;20.978;2022-12-05T05:14:28;0.90;99.90
17571;DHT22;8903;52.220;20.978;2022-12-05T05:16:55;0.90;99.90
17571;DHT22;8903;52.220;20.978;2022-12-05T05:19:22;0.90;99.90
17571;DHT22;8903;52.220;20.978;2022-12-05T05:21:51;0.90;99.90
17571;DHT22;8903;52.220;20.978;2022-12-05T05:24:18;0.90;99.90
17571;DHT22;8903;52.220;20.978;2022-12-05T05:26:46;0.90;99.90
17571;DHT22;8903;52.220;20.978;2022-12-05T05:29:14;0.90;99.90
17571;DHT22;8903;52.220;20.978;2022-12-05T05:31:41;0.90;99.90
17571;DHT22;8903;52.220;20.978;2022-12-05T05:34:09;0.90;99.90
17571;DHT22;8903;52.220;20.978;2022-12-05T05:36:37;0.90;99.90
17571;DHT22;8903;52.220;20.978;2022-12-05T05:39:09;0.90;99.90
17571;DHT22;8903;52.220;20.978;2022-12-05T05:41:36;0.90;99.90
17571;DHT22;8903;52.220;20.978;2022-12-05T05:44:03;0.90;99.90
17571;DHT22;8903;52.220;20.978;2022-12-05T05:46:32;0.90;99.90
17571;DHT22;8903;52.220;20.978;2022-12-05T05:48:59;1.00;99.90
17571;DHT22;8903;52.220;20.978;2022-12-05T05:51:26;1.00;99.90
17571;DHT22;8903;52.220;20.978;2022-12-05T05:53:55;0.90;99.90
17571;DHT22;8903;52.220;20.978;2022-12-05T05:56:24;0.90;99.90
17571;DHT22;8903;52.220;20.978;2022-12-05T05:58:55;0.90;99.90
17571;DHT22;8903;52.220;20.978;2022-12-05T06:01:22;0.90;99.90
17571;DHT22;8903;52.220;20.978;2022-12-05T06:03:49;0.90;99.90
17571;DHT22;8903;52.220;20.978;2022-12-05T06:06:17;0.90;99.90
17571;DHT22;8903;52.220;20.978;2022-12-05T06:08:45;0.90;99.90
17571;DHT22;8903;52.220;20.978;2022-12-05T06:11:13;0.90;99.90
17571;DHT22;8903;52.220;20.978;2022-12-05T06:13:42;0.90;99.90
17571;DHT22;8903;52.220;20.978;2022-12-05T06:16:11;0.90;99.90
17571;DHT22;8903;52.220;20.978;2022-12-05T06:18:38;1.00;99.90
17571;DHT22;8903;52.220;20.978;2022-12-05T06:21:05;1.00;99.90
17571;DHT22;8903;52.220;20.978;2022-12-05T06:23:33;1.00;99.90
17571;DHT22;8903;52.220;20.978;2022-12-05T06:26:01;0.90;99.90
17571;DHT22;8903;52.220;20.978;2022-12-05T06:28:28;1.00;99.90
17571;DHT22;8903;52.220;20.978;2022-12-05T06:30:56;1.00;99.90
17571;DHT22;8903;52.220;20.978;2022-12-05T06:33:24;1.00;99.90
17571;DHT22;8903;52.220;20.978;2022-12-05T06:36:01;1.00;99.90
17571;DHT22;8903;52.220;20.978;2022-12-05T06:38:28;1.00;99.90
17571;DHT22;8903;52.220;20.978;2022-12-05T06:40:55;1.00;99.90
17571;DHT22;8903;52.220;20.978;2022-12-05T06:43:22;1.00;99.90
17571;DHT22;8903;52.220;20.978;2022-12-05T06:45:49;1.00;99.90
17571;DHT22;8903;52.220;20.978;2022-12-05T06:48:17;1.00;99.90
17571;DHT22;8903;52.220;20.978;2022-12-05T06:50:48;1.00;99.90
17571;DHT22;8903;52.220;20.978;2022-12-05T06:53:15;1.00;99.90
17571;DHT22;8903;52.220;20.978;2022-12-05T06:55:43;1.00;99.90
17571;DHT22;8903;52.220;20.978;2022-12-05T06:58:10;1.00;99.90
17571;DHT22;8903;52.220;20.978;2022-12-05T07:00:36;1.00;99.90
17571;DHT22;8903;52.220;20.978;2022-12-05T07:03:23;1.00;99.90
17571;DHT22;8903;52.220;20.978;2022-12-05T07:05:50;1.00;99.90
17571;DHT22;8903;52.220;20.978;2022-12-05T07:08:16;1.00;99.90
17571;DHT22;8903;52.220;20.978;2022-12-05T07:10:49;1.10;99.90
17571;DHT22;8903;52.220;20.978;2022-12-05T07:13:16;1.10;99.90
17571;DHT22;8903;52.220;20.978;2022-12-05T07:15:45;1.10;99.90
17571;DHT22;8903;52.220;20.978;2022-12-05T07:18:12;1.10;99.90
17571;DHT22;8903;52.220;20.978;2022-12-05T07:20:40;1.10;99.90
17571;DHT22;8903;52.220;20.978;2022-12-05T07:23:07;1.10;99.90
17571;DHT22;8903;52.220;20.978;2022-12-05T07:25:38;1.10;99.90
17571;DHT22;8903;52.220;20.978;2022-12-05T07:28:05;1.20;99.90
17571;DHT22;8903;52.220;20.978;2022-12-05T07:30:32;1.20;99.90
17571;DHT22;8903;52.220;20.978;2022-12-05T07:32:59;1.20;99.90
17571;DHT22;8903;52.220;20.978;2022-12-05T07:35:26;1.20;99.90
17571;DHT22;8903;52.220;20.978;2022-12-05T07:37:54;1.20;99.90
17571;DHT22;8903;52.220;20.978;2022-12-05T07:40:21;1.20;99.90
17571;DHT22;8903;52.220;20.978;2022-12-05T07:42:48;1.20;99.90
17571;DHT22;8903;52.220;20.978;2022-12-05T07:45:15;1.20;99.90
17571;DHT22;8903;52.220;20.978;2022-12-05T07:47:42;1.20;99.90
17571;DHT22;8903;52.220;20.978;2022-12-05T07:50:09;1.20;99.90
17571;DHT22;8903;52.220;20.978;2022-12-05T07:52:36;1.20;99.90
17571;DHT22;8903;52.220;20.978;2022-12-05T07:55:06;1.20;99.90
17571;DHT22;8903;52.220;20.978;2022-12-05T07:57:33;1.30;99.90
17571;DHT22;8903;52.220;20.978;2022-12-05T08:00:00;1.20;99.90
17571;DHT22;8903;52.220;20.978;2022-12-05T08:02:26;1.30;99.90
17571;DHT22;8903;52.220;20.978;2022-12-05T08:04:53;1.20;99.90
17571;DHT22;8903;52.220;20.978;2022-12-05T08:07:20;1.20;99.90
17571;DHT22;8903;52.220;20.978;2022-12-05T08:09:47;1.30;99.90
17571;DHT22;8903;52.220;20.978;2022-12-05T08:12:15;1.30;99.90
17571;DHT22;8903;52.220;20.978;2022-12-05T08:14:42;1.30;99.90
17571;DHT22;8903;52.220;20.978;2022-12-05T08:17:08;1.40;99.90
17571;DHT22;8903;52.220;20.978;2022-12-05T08:19:36;1.40;99.90
17571;DHT22;8903;52.220;20.978;2022-12-05T08:22:02;1.40;99.90
17571;DHT22;8903;52.220;20.978;2022-12-05T08:24:29;1.40;99.90
17571;DHT22;8903;52.220;20.978;2022-12-05T08:26:56;1.40;99.90
17571;DHT22;8903;52.220;20.978;2022-12-05T08:29:25;1.40;99.90
17571;DHT22;8903;52.220;20.978;2022-12-05T08:31:52;1.40;99.90
17571;DHT22;8903;52.220;20.978;2022-12-05T08:34:19;1.40;99.90
17571;DHT22;8903;52.220;20.978;2022-12-05T08:36:46;1.40;99.90
17571;DHT22;8903;52.220;20.978;2022-12-05T08:39:15;1.40;99.90
17571;DHT22;8903;52.220;20.978;2022-12-05T08:41:44;1.50;99.90
17571;DHT22;8903;52.220;20.978;2022-12-05T08:44:12;1.40;99.90
17571;DHT22;8903;52.220;20.978;2022-12-05T08:46:43;1.50;99.90
17571;DHT22;8903;52.220;20.978;2022-12-05T08:49:11;1.50;99.90
17571;DHT22;8903;52.220;20.978;2022-12-05T08:51:39;1.50;99.90
17571;DHT22;8903;52.220;20.978;2022-12-05T08:54:06;1.60;99.90
17571;DHT22;8903;52.220;20.978;2022-12-05T08:56:33;1.60;99.90
17571;DHT22;8903;52.220;20.978;2022-12-05T08:59:00;1.60;99.90
17571;DHT22;8903;52.220;20.978;2022-12-05T09:01:27;1.60;99.90
17571;DHT22;8903;52.220;20.978;2022-12-05T09:03:58;1.60;99.90
17571;DHT22;8903;52.220;20.978;2022-12-05T09:06:26;1.60;99.90
17571;DHT22;8903;52.220;20.978;2022-12-05T09:08:55;1.70;99.90
17571;DHT22;8903;52.220;20.978;2022-12-05T09:11:24;1.70;99.90
17571;DHT22;8903;52.220;20.978;2022-12-05T09:13:54;1.70;99.90
17571;DHT22;8903;52.220;20.978;2022-12-05T09:16:23;1.70;99.90
17571;DHT22;8903;52.220;20.978;2022-12-05T09:18:51;1.70;99.90
17571;DHT22;8903;52.220;20.978;2022-12-05T09:21:22;1.70;99.90
17571;DHT22;8903;52.220;20.978;2022-12-05T09:23:49;1.70;99.90
17571;DHT22;8903;52.220;20.978;2022-12-05T09:26:18;1.80;99.90
17571;DHT22;8903;52.220;20.978;2022-12-05T09:28:46;1.80;99.90
17571;DHT22;8903;52.220;20.978;2022-12-05T09:31:14;1.80;99.90
17571;DHT22;8903;52.220;20.978;2022-12-05T09:33:42;1.80;99.90
17571;DHT22;8903;52.220;20.978;2022-12-05T09:36:12;1.80;99.90
17571;DHT22;8903;52.220;20.978;2022-12-05T09:38:42;1.80;99.90
17571;DHT22;8903;52.220;20.978;2022-12-05T09:41:17;1.80;99.90
17571;DHT22;8903;52.220;20.978;2022-12-05T09:44:14;1.90;99.90
17571;DHT22;8903;52.220;20.978;2022-12-05T09:46:48;1.90;99.90
17571;DHT22;8903;52.220;20.978;2022-12-05T09:49:17;1.90;99.90
17571;DHT22;8903;52.220;20.978;2022-12-05T09:51:45;1.90;99.90
17571;DHT22;8903;52.220;20.978;2022-12-05T09:54:15;1.90;99.90
17571;DHT22;8903;52.220;20.978;2022-12-05T09:56:43;1.90;99.90
17571;DHT22;8903;52.220;20.978;2022-12-05T09:59:13;2.00;99.90
17571;DHT22;8903;52.220;20.978;2022-12-05T10:01:45;2.00;99.90
17571;DHT22;8903;52.220;20.978;2022-12-05T10:04:27;2.00;99.90
17571;DHT22;8903;52.220;20.978;2022-12-05T10:07:02;2.00;99.90
17571;DHT22;8903;52.220;20.978;2022-12-05T10:10:02;2.00;99.90
17571;DHT22;8903;52.220;20.978;2022-12-05T10:12:50;2.00;99.90
17571;DHT22;8903;52.220;20.978;2022-12-05T10:15:28;2.00;99.90
17571;DHT22;8903;52.220;20.978;2022-12-05T10:17:58;2.00;99.90
17571;DHT22;8903;52.220;20.978;2022-12-05T10:20:30;2.00;99.90
17571;DHT22;8903;52.220;20.978;2022-12-05T10:23:02;2.00;99.90
17571;DHT22;8903;52.220;20.978;2022-12-05T10:25:32;2.00;99.90
17571;DHT22;8903;52.220;20.978;2022-12-05T10:28:04;2.00;99.90
17571;DHT22;8903;52.220;20.978;2022-12-05T10:30:33;2.00;99.90
17571;DHT22;8903;52.220;20.978;2022-12-05T10:33:02;2.00;99.90
17571;DHT22;8903;52.220;20.978;2022-12-05T10:35:33;2.00;99.90
17571;DHT22;8903;52.220;20.978;2022-12-05T10:38:04;2.00;99.90
17571;DHT22;8903;52.220;20.978;2022-12-05T10:40:36;2.00;99.90
17571;DHT22;8903;52.220;20.978;2022-12-05T10:43:03;2.00;99.90
17571;DHT22;8903;52.220;20.978;2022-12-05T10:45:31;2.00;99.90
17571;DHT22;8903;52.220;20.978;2022-12-05T10:47:58;2.00;99.90
17571;DHT22;8903;52.220;20.978;2022-12-05T10:50:29;2.00;99.90
17571;DHT22;8903;52.220;20.978;2022-12-05T10:52:58;2.00;99.90
17571;DHT22;8903;52.220;20.978;2022-12-05T10:55:29;2.10;99.90
17571;DHT22;8903;52.220;20.978;2022-12-05T10:58:12;2.10;99.90
17571;DHT22;8903;52.220;20.978;2022-12-05T11:00:40;2.00;99.90
17571;DHT22;8903;52.220;20.978;2022-12-05T11:03:23;2.10;99.90
17571;DHT22;8903;52.220;20.978;2022-12-05T11:05:51;2.10;99.90
17571;DHT22;8903;52.220;20.978;2022-12-05T11:08:23;2.10;99.90
17571;DHT22;8903;52.220;20.978;2022-12-05T11:11:00;2.00;99.90
17571;DHT22;8903;52.220;20.978;2022-12-05T11:13:28;2.00;99.90
17571;DHT22;8903;52.220;20.978;2022-12-05T11:15:56;2.00;99.90
17571;DHT22;8903;52.220;20.978;2022-12-05T11:18:28;2.00;99.90
17571;DHT22;8903;52.220;20.978;2022-12-05T11:20:56;2.00;99.90
17571;DHT22;8903;52.220;20.978;2022-12-05T11:23:33;2.10;99.90
17571;DHT22;8903;52.220;20.978;2022-12-05T11:26:00;2.10;99.90
17571;DHT22;8903;52.220;20.978;2022-12-05T11:28:32;2.10;99.90
17571;DHT22;8903;52.220;20.978;2022-12-05T11:31:01;2.10;99.90
17571;DHT22;8903;52.220;20.978;2022-12-05T11:33:29;2.10;99.90
17571;DHT22;8903;52.220;20.978;2022-12-05T11:36:02;2.10;99.90
17571;DHT22;8903;52.220;20.978;2022-12-05T11:38:30;2.10;99.90
17571;DHT22;8903;52.220;20.978;2022-12-05T11:41:08;2.10;99.90
17571;DHT22;8903;52.220;20.978;2022-12-05T11:43:55;2.10;99.90
17571;DHT22;8903;52.220;20.978;2022-12-05T11:46:29;2.10;99.90
17571;DHT22;8903;52.220;20.978;2022-12-05T11:49:19;2.10;99.90
17571;DHT22;8903;52.220;20.978;2022-12-05T11:51:53;2.00;99.90
17571;DHT22;8903;52.220;20.978;2022-12-05T11:54:34;2.00;99.90
17571;DHT22;8903;52.220;20.978;2022-12-05T11:57:09;2.00;99.90
17571;DHT22;8903;52.220;20.978;2022-12-05T12:00:05;2.00;99.90
17571;DHT22;8903;52.220;20.978;2022-12-05T12:05:44;2.10;99.90
17571;DHT22;8903;52.220;20.978;2022-12-05T12:08:20;2.10;99.90
17571;DHT22;8903;52.220;20.978;2022-12-05T12:10:53;2.10;99.90
17571;DHT22;8903;52.220;20.978;2022-12-05T12:13:38;2.10;99.90
17571;DHT22;8903;52.220;20.978;2022-12-05T12:16:14;2.10;99.90
17571;DHT22;8903;52.220;20.978;2022-12-05T12:19:05;2.10;99.90
17571;DHT22;8903;52.220;20.978;2022-12-05T12:21:43;2.10;99.90
17571;DHT22;8903;52.220;20.978;2022-12-05T12:24:20;2.00;99.90
17571;DHT22;8903;52.220;20.978;2022-12-05T12:26:58;2.00;99.90
17571;DHT22;8903;52.220;20.978;2022-12-05T12:29:40;2.00;99.90
17571;DHT22;8903;52.220;20.978;2022-12-05T12:32:19;2.10;99.90
17571;DHT22;8903;52.220;20.978;2022-12-05T12:35:14;2.00;99.90
17571;DHT22;8903;52.220;20.978;2022-12-05T12:37:52;2.10;99.90
17571;DHT22;8903;52.220;20.978;2022-12-05T12:40:31;2.10;99.90
17571;DHT22;8903;52.220;20.978;2022-12-05T12:43:06;2.10;99.90
17571;DHT22;8903;52.220;20.978;2022-12-05T12:45:55;2.10;99.90
17571;DHT22;8903;52.220;20.978;2022-12-05T12:48:36;2.10;99.90
17571;DHT22;8903;52.220;20.978;2022-12-05T12:51:11;2.10;99.90
17571;DHT22;8903;52.220;20.978;2022-12-05T12:53:54;2.10;99.90
17571;DHT22;8903;52.220;20.978;2022-12-05T12:56:31;2.00;99.90
17571;DHT22;8903;52.220;20.978;2022-12-05T12:59:22;2.10;99.90
17571;DHT22;8903;52.220;20.978;2022-12-05T13:01:57;2.10;99.90
17571;DHT22;8903;52.220;20.978;2022-12-05T13:04:31;2.10;99.90
17571;DHT22;8903;52.220;20.978;2022-12-05T13:07:08;2.10;99.90
17571;DHT22;8903;52.220;20.978;2022-12-05T13:09:40;2.10;99.90
17571;DHT22;8903;52.220;20.978;2022-12-05T13:12:12;2.10;99.90
17571;DHT22;8903;52.220;20.978;2022-12-05T13:14:43;2.10;99.90
17571;DHT22;8903;52.220;20.978;2022-12-05T13:17:16;2.10;99.90
17571;DHT22;8903;52.220;20.978;2022-12-05T13:19:48;2.10;99.90
17571;DHT22;8903;52.220;20.978;2022-12-05T13:22:19;2.10;99.90
17571;DHT22;8903;52.220;20.978;2022-12-05T13:24:48;2.10;99.90
17571;DHT22;8903;52.220;20.978;2022-12-05T13:27:17;2.10;99.90
17571;DHT22;8903;52.220;20.978;2022-12-05T13:29:50;2.10;99.90
17571;DHT22;8903;52.220;20.978;2022-12-05T13:32:26;2.10;99.90
17571;DHT22;8903;52.220;20.978;2022-12-05T13:34:56;2.10;99.90
17571;DHT22;8903;52.220;20.978;2022-12-05T13:37:25;2.10;99.90
17571;DHT22;8903;52.220;20.978;2022-12-05T13:40:28;2.10;99.90
17571;DHT22;8903;52.220;20.978;2022-12-05T13:43:15;2.10;99.90
17571;DHT22;8903;52.220;20.978;2022-12-05T13:45:56;2.10;99.90
17571;DHT22;8903;52.220;20.978;2022-12-05T13:48:26;2.20;99.90
17571;DHT22;8903;52.220;20.978;2022-12-05T13:50:57;2.20;99.90
17571;DHT22;8903;52.220;20.978;2022-12-05T13:53:30;2.20;99.90
17571;DHT22;8903;52.220;20.978;2022-12-05T13:56:00;2.20;99.90
17571;DHT22;8903;52.220;20.978;2022-12-05T13:58:42;2.20;99.90
17571;DHT22;8903;52.220;20.978;2022-12-05T14:01:44;2.20;99.90
17571;DHT22;8903;52.220;20.978;2022-12-05T14:04:45;2.20;99.90
17571;DHT22;8903;52.220;20.978;2022-12-05T14:07:39;2.20;99.90
17571;DHT22;8903;52.220;20.978;2022-12-05T14:10:07;2.10;99.90
17571;DHT22;8903;52.220;20.978;2022-12-05T14:12:52;2.10;99.90
17571;DHT22;8903;52.220;20.978;2022-12-05T14:15:31;2.10;99.90
17571;DHT22;8903;52.220;20.978;2022-12-05T14:18:02;2.10;99.90
17571;DHT22;8903;52.220;20.978;2022-12-05T14:20:46;2.10;99.90
17571;DHT22;8903;52.220;20.978;2022-12-05T14:23:32;2.10;99.90
17571;DHT22;8903;52.220;20.978;2022-12-05T14:26:14;2.10;99.90
17571;DHT22;8903;52.220;20.978;2022-12-05T14:29:00;2.10;99.90
17571;DHT22;8903;52.220;20.978;2022-12-05T14:31:45;2.10;99.90
17571;DHT22;8903;52.220;20.978;2022-12-05T14:34:20;2.10;99.90
17571;DHT22;8903;52.220;20.978;2022-12-05T14:36:58;2.10;99.90
17571;DHT22;8903;52.220;20.978;2022-12-05T14:39:38;2.10;99.90
17571;DHT22;8903;52.220;20.978;2022-12-05T14:42:25;2.10;99.90
17571;DHT22;8903;52.220;20.978;2022-12-05T14:44:55;2.20;99.90
17571;DHT22;8903;52.220;20.978;2022-12-05T14:47:25;2.10;99.90
17571;DHT22;8903;52.220;20.978;2022-12-05T14:49:56;2.10;99.90
17571;DHT22;8903;52.220;20.978;2022-12-05T14:52:27;2.10;99.90
17571;DHT22;8903;52.220;20.978;2022-12-05T14:55:00;2.10;99.90
17571;DHT22;8903;52.220;20.978;2022-12-05T14:57:28;2.10;99.90
17571;DHT22;8903;52.220;20.978;2022-12-05T14:59:58;2.10;99.90
17571;DHT22;8903;52.220;20.978;2022-12-05T15:02:30;2.10;99.90
17571;DHT22;8903;52.220;20.978;2022-12-05T15:05:02;2.10;99.90
17571;DHT22;8903;52.220;20.978;2022-12-05T15:07:32;2.10;99.90
17571;DHT22;8903;52.220;20.978;2022-12-05T15:10:04;2.00;99.90
17571;DHT22;8903;52.220;20.978;2022-12-05T15:12:37;2.00;99.90
17571;DHT22;8903;52.220;20.978;2022-12-05T15:15:12;2.10;99.90
17571;DHT22;8903;52.220;20.978;2022-12-05T15:17:44;2.10;99.90
17571;DHT22;8903;52.220;20.978;2022-12-05T15:20:32;2.10;99.90
17571;DHT22;8903;52.220;20.978;2022-12-05T15:22:59;2.10;99.90
17571;DHT22;8903;52.220;20.978;2022-12-05T15:25:30;2.10;99.90
17571;DHT22;8903;52.220;20.978;2022-12-05T15:28:03;2.10;99.90
17571;DHT22;8903;52.220;20.978;2022-12-05T15:30:35;2.10;99.90
17571;DHT22;8903;52.220;20.978;2022-12-05T15:33:04;2.10;99.90
17571;DHT22;8903;52.220;20.978;2022-12-05T15:35:31;2.10;99.90
17571;DHT22;8903;52.220;20.978;2022-12-05T15:38:03;2.10;99.90
17571;DHT22;8903;52.220;20.978;2022-12-05T15:40:33;2.10;99.90
17571;DHT22;8903;52.220;20.978;2022-12-05T15:46:07;2.10;99.90
17571;DHT22;8903;52.220;20.978;2022-12-05T15:48:34;2.10;99.90
17571;DHT22;8903;52.220;20.978;2022-12-05T15:51:01;2.10;99.90
17571;DHT22;8903;52.220;20.978;2022-12-05T15:53:33;2.10;99.90
17571;DHT22;8903;52.220;20.978;2022-12-05T15:56:04;2.10;99.90
17571;DHT22;8903;52.220;20.978;2022-12-05T15:58:35;2.10;99.90
17571;DHT22;8903;52.220;20.978;2022-12-05T16:01:07;2.10;99.90
17571;DHT22;8903;52.220;20.978;2022-12-05T16:03:39;2.10;99.90
17571;DHT22;8903;52.220;20.978;2022-12-05T16:06:11;2.10;99.90
17571;DHT22;8903;52.220;20.978;2022-12-05T16:08:45;2.10;99.90
17571;DHT22;8903;52.220;20.978;2022-12-05T16:11:14;2.10;99.90
17571;DHT22;8903;52.220;20.978;2022-12-05T16:13:43;2.10;99.90
17571;DHT22;8903;52.220;20.978;2022-12-05T16:16:15;2.10;99.90
17571;DHT22;8903;52.220;20.978;2022-12-05T16:18:48;2.10;99.90
17571;DHT22;8903;52.220;20.978;2022-12-05T16:21:29;2.10;99.90